sensor_id;sensor_type;location;lat;lon;timestamp;temperature;humidity
827;DHT22;395;48.132;11.608;2023-01-26T00:00:06;3.70;2.00
827;DHT22;395;48.132;11.608;2023-01-26T00:02:32;3.70;2.10
827;DHT22;395;48.132;11.608;2023-01-26T00:04:57;3.80;2.30
827;DHT22;395;48.132;11.608;2023-01-26T00:07:23;3.70;2.20
827;DHT22;395;48.132;11.608;2023-01-26T00:09:48;3.70;2.20
827;DHT22;395;48.132;11.608;2023-01-26T00:12:14;3.80;2.10
827;DHT22;395;48.132;11.608;2023-01-26T00:14:40;3.80;2.10
827;DHT22;395;48.132;11.608;2023-01-26T00:17:16;3.80;2.30
827;DHT22;395;48.132;11.608;2023-01-26T00:19:53;3.80;2.20
827;DHT22;395;48.132;11.608;2023-01-26T00:22:20;3.80;2.00
827;DHT22;395;48.132;11.608;2023-01-26T00:24:46;3.80;2.00
827;DHT22;395;48.132;11.608;2023-01-26T00:27:12;3.80;2.00
827;DHT22;395;48.132;11.608;2023-01-26T00:29:37;3.70;1.80
827;DHT22;395;48.132;11.608;2023-01-26T00:32:03;3.70;1.90
827;DHT22;395;48.132;11.608;2023-01-26T00:34:29;3.80;2.20
827;DHT22;395;48.132;11.608;2023-01-26T00:36:55;3.70;2.20
827;DHT22;395;48.132;11.608;2023-01-26T00:39:21;3.80;2.00
827;DHT22;395;48.132;11.608;2023-01-26T00:41:46;3.70;1.90
827;DHT22;395;48.132;11.608;2023-01-26T00:44:31;3.80;1.90
827;DHT22;395;48.132;11.608;2023-01-26T00:46:57;3.70;1.70
827;DHT22;395;48.132;11.608;2023-01-26T00:49:22;3.70;1.50
827;DHT22;395;48.132;11.608;2023-01-26T00:51:48;3.70;1.60
827;DHT22;395;48.132;11.608;2023-01-26T00:54:14;3.70;1.60
827;DHT22;395;48.132;11.608;2023-01-26T00:56:39;3.70;1.60
827;DHT22;395;48.132;11.608;2023-01-26T00:59:05;3.70;1.40
827;DHT22;395;48.132;11.608;2023-01-26T01:01:31;3.70;1.50
827;DHT22;395;48.132;11.608;2023-01-26T01:03:57;3.70;2.10
827;DHT22;395;48.132;11.608;2023-01-26T01:06:22;3.70;1.50
827;DHT22;395;48.132;11.608;2023-01-26T01:08:48;3.80;1.50
827;DHT22;395;48.132;11.608;2023-01-26T01:11:14;3.70;1.50
827;DHT22;395;48.132;11.608;2023-01-26T01:13:40;3.70;1.40
827;DHT22;395;48.132;11.608;2023-01-26T01:16:07;3.70;1.40
827;DHT22;395;48.132;11.608;2023-01-26T01:18:34;3.70;1.40
827;DHT22;395;48.132;11.608;2023-01-26T01:20:59;3.70;1.30
827;DHT22;395;48.132;11.608;2023-01-26T01:23:28;3.70;1.30
827;DHT22;395;48.132;11.608;2023-01-26T01:25:58;3.70;1.30
827;DHT22;395;48.132;11.608;2023-01-26T01:28:24;3.70;1.00
827;DHT22;395;48.132;11.608;2023-01-26T01:30:50;3.60;1.00
827;DHT22;395;48.132;11.608;2023-01-26T01:33:16;3.60;1.00
827;DHT22;395;48.132;11.608;2023-01-26T01:35:41;3.60;1.40
827;DHT22;395;48.132;11.608;2023-01-26T01:38:07;3.60;1.40
827;DHT22;395;48.132;11.608;2023-01-26T01:40:33;3.60;1.70
827;DHT22;395;48.132;11.608;2023-01-26T01:42:59;3.60;1.60
827;DHT22;395;48.132;11.608;2023-01-26T01:47:58;3.70;1.50
827;DHT22;395;48.132;11.608;2023-01-26T01:50:25;3.70;1.40
827;DHT22;395;48.132;11.608;2023-01-26T01:52:52;3.60;1.10
827;DHT22;395;48.132;11.608;2023-01-26T01:55:19;3.70;1.20
827;DHT22;395;48.132;11.608;2023-01-26T01:57:49;3.60;1.00
827;DHT22;395;48.132;11.608;2023-01-26T02:00:19;3.60;1.00
827;DHT22;395;48.132;11.608;2023-01-26T02:02:50;3.60;1.00
827;DHT22;395;48.132;11.608;2023-01-26T02:05:49;3.60;1.00
827;DHT22;395;48.132;11.608;2023-01-26T02:08:17;3.50;1.00
827;DHT22;395;48.132;11.608;2023-01-26T02:10:46;3.50;1.00
827;DHT22;395;48.132;11.608;2023-01-26T02:13:15;3.50;1.00
827;DHT22;395;48.132;11.608;2023-01-26T02:15:41;3.50;1.00
827;DHT22;395;48.132;11.608;2023-01-26T02:18:07;3.50;1.00
827;DHT22;395;48.132;11.608;2023-01-26T02:20:46;3.60;1.00
827;DHT22;395;48.132;11.608;2023-01-26T02:28:24;3.50;1.00
827;DHT22;395;48.132;11.608;2023-01-26T02:30:52;3.50;1.00
827;DHT22;395;48.132;11.608;2023-01-26T02:33:20;3.50;1.00
827;DHT22;395;48.132;11.608;2023-01-26T02:35:46;3.50;1.00
827;DHT22;395;48.132;11.608;2023-01-26T02:38:11;3.50;1.00
827;DHT22;395;48.132;11.608;2023-01-26T02:40:44;3.50;1.00
827;DHT22;395;48.132;11.608;2023-01-26T02:43:11;3.50;1.00
827;DHT22;395;48.132;11.608;2023-01-26T02:45:37;3.50;1.00
827;DHT22;395;48.132;11.608;2023-01-26T02:48:04;3.50;1.00
827;DHT22;395;48.132;11.608;2023-01-26T02:50:31;3.50;1.00
827;DHT22;395;48.132;11.608;2023-01-26T02:52:58;3.50;1.00
827;DHT22;395;48.132;11.608;2023-01-26T02:55:24;3.50;1.00
827;DHT22;395;48.132;11.608;2023-01-26T02:58:02;3.60;1.00
827;DHT22;395;48.132;11.608;2023-01-26T03:00:34;3.50;1.00
827;DHT22;395;48.132;11.608;2023-01-26T03:03:13;3.50;1.00
827;DHT22;395;48.132;11.608;2023-01-26T03:05:39;3.60;1.10
827;DHT22;395;48.132;11.608;2023-01-26T03:08:05;3.60;1.10
827;DHT22;395;48.132;11.608;2023-01-26T03:10:32;3.50;1.00
827;DHT22;395;48.132;11.608;2023-01-26T03:12:58;3.50;1.00
827;DHT22;395;48.132;11.608;2023-01-26T03:15:24;3.60;1.00
827;DHT22;395;48.132;11.608;2023-01-26T03:18:12;3.60;1.00
827;DHT22;395;48.132;11.608;2023-01-26T03:20:59;3.60;1.00
827;DHT22;395;48.132;11.608;2023-01-26T03:23:44;3.50;1.00
827;DHT22;395;48.132;11.608;2023-01-26T03:26:29;3.50;1.00
827;DHT22;395;48.132;11.608;2023-01-26T03:29:13;3.50;1.00
827;DHT22;395;48.132;11.608;2023-01-26T03:31:39;3.50;1.00
827;DHT22;395;48.132;11.608;2023-01-26T03:34:04;3.50;1.00
827;DHT22;395;48.132;11.608;2023-01-26T03:36:30;3.60;1.00
827;DHT22;395;48.132;11.608;2023-01-26T03:38:56;3.50;1.00
827;DHT22;395;48.132;11.608;2023-01-26T03:41:21;3.50;1.00
827;DHT22;395;48.132;11.608;2023-01-26T03:44:06;3.50;1.00
827;DHT22;395;48.132;11.608;2023-01-26T03:46:50;3.50;1.00
827;DHT22;395;48.132;11.608;2023-01-26T03:49:34;3.50;1.00
827;DHT22;395;48.132;11.608;2023-01-26T03:52:18;3.50;1.00
827;DHT22;395;48.132;11.608;2023-01-26T03:55:03;3.50;1.00
827;DHT22;395;48.132;11.608;2023-01-26T03:57:47;3.50;1.00
827;DHT22;395;48.132;11.608;2023-01-26T04:00:13;3.50;1.00
827;DHT22;395;48.132;11.608;2023-01-26T04:02:39;3.50;1.00
827;DHT22;395;48.132;11.608;2023-01-26T04:05:24;3.50;1.00
827;DHT22;395;48.132;11.608;2023-01-26T04:08:08;3.50;1.00
827;DHT22;395;48.132;11.608;2023-01-26T04:10:53;3.50;1.00
827;DHT22;395;48.132;11.608;2023-01-26T04:13:21;3.50;1.00
827;DHT22;395;48.132;11.608;2023-01-26T04:16:06;3.60;1.00
827;DHT22;395;48.132;11.608;2023-01-26T04:18:50;3.60;1.00
827;DHT22;395;48.132;11.608;2023-01-26T04:21:36;3.60;1.00
827;DHT22;395;48.132;11.608;2023-01-26T04:24:04;3.60;1.00
827;DHT22;395;48.132;11.608;2023-01-26T04:26:35;3.50;1.00
827;DHT22;395;48.132;11.608;2023-01-26T04:29:09;3.60;1.00
827;DHT22;395;48.132;11.608;2023-01-26T04:31:35;3.60;1.00
827;DHT22;395;48.132;11.608;2023-01-26T04:34:03;3.50;1.00
827;DHT22;395;48.132;11.608;2023-01-26T04:36:29;3.50;1.00
827;DHT22;395;48.132;11.608;2023-01-26T04:38:55;3.60;1.00
827;DHT22;395;48.132;11.608;2023-01-26T04:41:21;3.60;1.00
827;DHT22;395;48.132;11.608;2023-01-26T04:43:47;3.60;1.00
827;DHT22;395;48.132;11.608;2023-01-26T04:46:13;3.60;1.00
827;DHT22;395;48.132;11.608;2023-01-26T04:48:39;3.60;1.00
827;DHT22;395;48.132;11.608;2023-01-26T04:51:08;3.60;1.00
827;DHT22;395;48.132;11.608;2023-01-26T04:53:35;3.60;1.00
827;DHT22;395;48.132;11.608;2023-01-26T04:56:01;3.50;1.00
827;DHT22;395;48.132;11.608;2023-01-26T04:58:27;3.60;1.00
827;DHT22;395;48.132;11.608;2023-01-26T05:00:54;3.50;1.00
827;DHT22;395;48.132;11.608;2023-01-26T05:03:21;3.60;1.00
827;DHT22;395;48.132;11.608;2023-01-26T05:05:48;3.60;1.00
827;DHT22;395;48.132;11.608;2023-01-26T05:08:16;3.60;1.00
827;DHT22;395;48.132;11.608;2023-01-26T05:10:41;3.50;1.00
827;DHT22;395;48.132;11.608;2023-01-26T05:13:07;3.50;1.00
827;DHT22;395;48.132;11.608;2023-01-26T05:15:33;3.50;1.00
827;DHT22;395;48.132;11.608;2023-01-26T05:17:59;3.50;1.00
827;DHT22;395;48.132;11.608;2023-01-26T05:20:25;3.50;1.00
827;DHT22;395;48.132;11.608;2023-01-26T05:22:51;3.60;1.00
827;DHT22;395;48.132;11.608;2023-01-26T05:25:17;3.60;1.00
827;DHT22;395;48.132;11.608;2023-01-26T05:27:42;3.50;1.00
827;DHT22;395;48.132;11.608;2023-01-26T05:30:09;3.60;1.00
827;DHT22;395;48.132;11.608;2023-01-26T05:32:35;3.50;1.00
827;DHT22;395;48.132;11.608;2023-01-26T05:35:02;3.60;1.00
827;DHT22;395;48.132;11.608;2023-01-26T05:37:27;3.60;1.00
827;DHT22;395;48.132;11.608;2023-01-26T05:39:54;3.60;1.00
827;DHT22;395;48.132;11.608;2023-01-26T05:42:20;3.60;1.00
827;DHT22;395;48.132;11.608;2023-01-26T05:44:46;3.60;1.00
827;DHT22;395;48.132;11.608;2023-01-26T05:47:12;3.60;1.00
827;DHT22;395;48.132;11.608;2023-01-26T05:49:38;3.60;1.00
827;DHT22;395;48.132;11.608;2023-01-26T05:52:08;3.60;1.00
827;DHT22;395;48.132;11.608;2023-01-26T05:54:35;3.60;1.00
827;DHT22;395;48.132;11.608;2023-01-26T05:57:01;3.60;1.00
827;DHT22;395;48.132;11.608;2023-01-26T05:59:26;3.60;1.00
827;DHT22;395;48.132;11.608;2023-01-26T06:01:52;3.60;1.00
827;DHT22;395;48.132;11.608;2023-01-26T06:04:17;3.60;1.00
827;DHT22;395;48.132;11.608;2023-01-26T06:06:43;3.60;1.00
827;DHT22;395;48.132;11.608;2023-01-26T06:09:09;3.60;1.00
827;DHT22;395;48.132;11.608;2023-01-26T06:11:35;3.60;1.00
827;DHT22;395;48.132;11.608;2023-01-26T06:14:00;3.50;1.00
827;DHT22;395;48.132;11.608;2023-01-26T06:16:26;3.50;1.00
827;DHT22;395;48.132;11.608;2023-01-26T06:18:52;3.50;1.00
827;DHT22;395;48.132;11.608;2023-01-26T06:21:18;3.50;1.00
827;DHT22;395;48.132;11.608;2023-01-26T06:23:43;3.50;1.00
827;DHT22;395;48.132;11.608;2023-01-26T06:26:09;3.50;1.00
827;DHT22;395;48.132;11.608;2023-01-26T06:28:35;3.50;1.00
827;DHT22;395;48.132;11.608;2023-01-26T06:31:02;3.60;1.00
827;DHT22;395;48.132;11.608;2023-01-26T06:33:29;3.50;1.00
827;DHT22;395;48.132;11.608;2023-01-26T06:35:55;3.50;1.00
827;DHT22;395;48.132;11.608;2023-01-26T06:38:21;3.50;1.00
827;DHT22;395;48.132;11.608;2023-01-26T06:40:47;3.50;1.00
827;DHT22;395;48.132;11.608;2023-01-26T06:43:13;3.50;1.00
827;DHT22;395;48.132;11.608;2023-01-26T06:45:38;3.50;1.00
827;DHT22;395;48.132;11.608;2023-01-26T06:48:06;3.50;1.00
827;DHT22;395;48.132;11.608;2023-01-26T06:50:32;3.50;1.00
827;DHT22;395;48.132;11.608;2023-01-26T06:53:02;3.50;1.00
827;DHT22;395;48.132;11.608;2023-01-26T06:55:34;3.50;1.00
827;DHT22;395;48.132;11.608;2023-01-26T06:58:00;3.50;1.00
827;DHT22;395;48.132;11.608;2023-01-26T07:00:26;3.50;1.00
827;DHT22;395;48.132;11.608;2023-01-26T07:02:52;3.50;1.00
827;DHT22;395;48.132;11.608;2023-01-26T07:05:18;3.50;1.00
827;DHT22;395;48.132;11.608;2023-01-26T07:07:43;3.60;1.00
827;DHT22;395;48.132;11.608;2023-01-26T07:10:09;3.60;1.00
827;DHT22;395;48.132;11.608;2023-01-26T07:12:40;3.60;1.00
827;DHT22;395;48.132;11.608;2023-01-26T07:15:06;3.70;1.00
827;DHT22;395;48.132;11.608;2023-01-26T07:17:32;3.70;1.00
827;DHT22;395;48.132;11.608;2023-01-26T07:19:57;3.60;1.00
827;DHT22;395;48.132;11.608;2023-01-26T07:22:23;3.60;1.00
827;DHT22;395;48.132;11.608;2023-01-26T07:24:49;3.70;1.00
827;DHT22;395;48.132;11.608;2023-01-26T07:27:14;3.60;1.00
827;DHT22;395;48.132;11.608;2023-01-26T07:29:40;3.70;1.00
827;DHT22;395;48.132;11.608;2023-01-26T07:32:06;3.70;1.00
827;DHT22;395;48.132;11.608;2023-01-26T07:34:32;3.70;1.00
827;DHT22;395;48.132;11.608;2023-01-26T07:36:57;3.70;1.00
827;DHT22;395;48.132;11.608;2023-01-26T07:39:23;3.60;1.00
827;DHT22;395;48.132;11.608;2023-01-26T07:41:49;3.60;1.00
827;DHT22;395;48.132;11.608;2023-01-26T07:44:14;3.60;1.00
827;DHT22;395;48.132;11.608;2023-01-26T07:46:40;3.60;1.00
827;DHT22;395;48.132;11.608;2023-01-26T07:49:06;3.60;1.00
827;DHT22;395;48.132;11.608;2023-01-26T07:51:32;3.50;1.00
827;DHT22;395;48.132;11.608;2023-01-26T07:53:58;3.50;1.00
827;DHT22;395;48.132;11.608;2023-01-26T07:56:24;3.50;1.00
827;DHT22;395;48.132;11.608;2023-01-26T07:58:50;3.50;1.00
827;DHT22;395;48.132;11.608;2023-01-26T08:01:16;3.50;1.00
827;DHT22;395;48.132;11.608;2023-01-26T08:03:42;3.50;1.00
827;DHT22;395;48.132;11.608;2023-01-26T08:06:10;3.50;1.00
827;DHT22;395;48.132;11.608;2023-01-26T08:08:36;3.50;1.00
827;DHT22;395;48.132;11.608;2023-01-26T08:11:05;3.50;1.00
827;DHT22;395;48.132;11.608;2023-01-26T08:13:31;3.50;1.00
827;DHT22;395;48.132;11.608;2023-01-26T08:16:04;3.50;1.00
827;DHT22;395;48.132;11.608;2023-01-26T08:18:31;3.60;1.00
827;DHT22;395;48.132;11.608;2023-01-26T08:20:58;3.40;1.00
827;DHT22;395;48.132;11.608;2023-01-26T08:23:24;3.50;1.00
827;DHT22;395;48.132;11.608;2023-01-26T08:25:50;3.50;1.00
827;DHT22;395;48.132;11.608;2023-01-26T08:28:16;3.60;1.00
827;DHT22;395;48.132;11.608;2023-01-26T08:30:42;3.50;1.00
827;DHT22;395;48.132;11.608;2023-01-26T08:33:07;3.60;1.00
827;DHT22;395;48.132;11.608;2023-01-26T08:35:33;3.60;1.00
827;DHT22;395;48.132;11.608;2023-01-26T08:37:59;3.50;1.00
827;DHT22;395;48.132;11.608;2023-01-26T08:40:25;3.50;1.00
827;DHT22;395;48.132;11.608;2023-01-26T08:42:51;3.60;1.00
827;DHT22;395;48.132;11.608;2023-01-26T08:45:17;3.60;1.00
827;DHT22;395;48.132;11.608;2023-01-26T08:47:43;3.50;1.00
827;DHT22;395;48.132;11.608;2023-01-26T08:50:10;3.60;1.00
827;DHT22;395;48.132;11.608;2023-01-26T08:52:36;3.50;1.00
827;DHT22;395;48.132;11.608;2023-01-26T08:55:02;3.50;1.00
827;DHT22;395;48.132;11.608;2023-01-26T08:57:29;3.50;1.00
827;DHT22;395;48.132;11.608;2023-01-26T08:59:54;3.50;1.00
827;DHT22;395;48.132;11.608;2023-01-26T09:02:20;3.50;1.00
827;DHT22;395;48.132;11.608;2023-01-26T09:04:45;3.50;1.00
827;DHT22;395;48.132;11.608;2023-01-26T09:07:11;3.60;1.00
827;DHT22;395;48.132;11.608;2023-01-26T09:09:37;3.60;1.00
827;DHT22;395;48.132;11.608;2023-01-26T09:12:03;3.50;1.00
827;DHT22;395;48.132;11.608;2023-01-26T09:14:29;3.60;1.00
827;DHT22;395;48.132;11.608;2023-01-26T09:16:55;3.50;1.00
827;DHT22;395;48.132;11.608;2023-01-26T09:19:20;3.60;1.00
827;DHT22;395;48.132;11.608;2023-01-26T09:21:46;3.60;1.00
827;DHT22;395;48.132;11.608;2023-01-26T09:24:16;3.70;1.00
827;DHT22;395;48.132;11.608;2023-01-26T09:26:41;3.70;1.00
827;DHT22;395;48.132;11.608;2023-01-26T09:29:07;3.60;1.00
827;DHT22;395;48.132;11.608;2023-01-26T09:31:32;3.60;1.00
827;DHT22;395;48.132;11.608;2023-01-26T09:33:58;3.70;1.00
827;DHT22;395;48.132;11.608;2023-01-26T09:36:24;3.60;1.00
827;DHT22;395;48.132;11.608;2023-01-26T09:38:49;3.60;1.00
827;DHT22;395;48.132;11.608;2023-01-26T09:44:25;3.60;1.00
827;DHT22;395;48.132;11.608;2023-01-26T09:47:05;3.60;1.00
827;DHT22;395;48.132;11.608;2023-01-26T09:49:48;3.60;1.00
827;DHT22;395;48.132;11.608;2023-01-26T09:52:35;3.60;1.00
827;DHT22;395;48.132;11.608;2023-01-26T09:55:12;3.60;1.00
827;DHT22;395;48.132;11.608;2023-01-26T09:58:02;3.60;1.00
827;DHT22;395;48.132;11.608;2023-01-26T10:00:50;3.60;1.00
827;DHT22;395;48.132;11.608;2023-01-26T10:08:43;3.60;1.00
827;DHT22;395;48.132;11.608;2023-01-26T10:11:18;3.60;1.00
827;DHT22;395;48.132;11.608;2023-01-26T10:13:50;3.60;1.00
827;DHT22;395;48.132;11.608;2023-01-26T10:16:18;3.60;1.00
827;DHT22;395;48.132;11.608;2023-01-26T10:18:49;3.60;1.00
827;DHT22;395;48.132;11.608;2023-01-26T10:21:18;3.70;1.00
827;DHT22;395;48.132;11.608;2023-01-26T10:23:48;3.60;1.00
827;DHT22;395;48.132;11.608;2023-01-26T10:26:18;3.60;1.00
827;DHT22;395;48.132;11.608;2023-01-26T10:28:45;3.70;1.00
827;DHT22;395;48.132;11.608;2023-01-26T10:31:17;3.70;1.00
827;DHT22;395;48.132;11.608;2023-01-26T10:34:16;3.60;1.00
827;DHT22;395;48.132;11.608;2023-01-26T10:36:43;3.70;1.00
827;DHT22;395;48.132;11.608;2023-01-26T10:39:11;3.60;1.00
827;DHT22;395;48.132;11.608;2023-01-26T10:41:37;3.70;1.00
827;DHT22;395;48.132;11.608;2023-01-26T10:44:32;3.70;1.00
827;DHT22;395;48.132;11.608;2023-01-26T10:47:18;3.70;1.00
827;DHT22;395;48.132;11.608;2023-01-26T10:49:46;3.70;1.00
827;DHT22;395;48.132;11.608;2023-01-26T10:52:23;3.60;1.00
827;DHT22;395;48.132;11.608;2023-01-26T10:55:19;3.60;1.00
827;DHT22;395;48.132;11.608;2023-01-26T10:57:45;3.70;1.00
827;DHT22;395;48.132;11.608;2023-01-26T11:00:27;3.70;1.00
827;DHT22;395;48.132;11.608;2023-01-26T11:03:18;3.70;1.00
827;DHT22;395;48.132;11.608;2023-01-26T11:05:44;3.70;1.00
827;DHT22;395;48.132;11.608;2023-01-26T11:08:35;3.70;1.00
827;DHT22;395;48.132;11.608;2023-01-26T11:11:02;3.70;1.00
827;DHT22;395;48.132;11.608;2023-01-26T11:13:28;3.70;1.00
827;DHT22;395;48.132;11.608;2023-01-26T11:16:12;3.70;1.00
827;DHT22;395;48.132;11.608;2023-01-26T11:18:58;3.70;1.00
827;DHT22;395;48.132;11.608;2023-01-26T11:27:24;3.70;1.00
827;DHT22;395;48.132;11.608;2023-01-26T11:44:23;3.70;1.00
827;DHT22;395;48.132;11.608;2023-01-26T11:46:51;3.60;1.00
827;DHT22;395;48.132;11.608;2023-01-26T12:00:41;3.60;1.00
827;DHT22;395;48.132;11.608;2023-01-26T12:06:07;3.60;1.00
827;DHT22;395;48.132;11.608;2023-01-26T12:08:41;3.60;1.00
827;DHT22;395;48.132;11.608;2023-01-26T12:21:48;3.70;1.00
827;DHT22;395;48.132;11.608;2023-01-26T12:24:19;3.70;1.00
827;DHT22;395;48.132;11.608;2023-01-26T12:26:51;3.60;1.00
827;DHT22;395;48.132;11.608;2023-01-26T12:29:34;3.70;1.00
827;DHT22;395;48.132;11.608;2023-01-26T12:32:13;3.70;1.00
827;DHT22;395;48.132;11.608;2023-01-26T12:34:39;3.80;1.00
827;DHT22;395;48.132;11.608;2023-01-26T12:45:37;3.70;1.00
827;DHT22;395;48.132;11.608;2023-01-26T12:48:12;3.70;1.00
827;DHT22;395;48.132;11.608;2023-01-26T12:50:46;3.70;1.00
827;DHT22;395;48.132;11.608;2023-01-26T12:55:56;3.60;1.00
827;DHT22;395;48.132;11.608;2023-01-26T12:58:28;3.60;1.00
827;DHT22;395;48.132;11.608;2023-01-26T13:01:06;3.60;1.00
827;DHT22;395;48.132;11.608;2023-01-26T13:03:35;3.50;1.00
827;DHT22;395;48.132;11.608;2023-01-26T13:11:09;3.50;1.00
827;DHT22;395;48.132;11.608;2023-01-26T13:13:56;3.40;1.00
827;DHT22;395;48.132;11.608;2023-01-26T13:18:55;3.50;1.00
827;DHT22;395;48.132;11.608;2023-01-26T13:26:56;3.60;1.00
827;DHT22;395;48.132;11.608;2023-01-26T13:32:00;3.50;1.00
827;DHT22;395;48.132;11.608;2023-01-26T13:34:36;3.50;1.00
827;DHT22;395;48.132;11.608;2023-01-26T13:37:14;3.50;1.00
827;DHT22;395;48.132;11.608;2023-01-26T13:39:43;3.50;1.00
827;DHT22;395;48.132;11.608;2023-01-26T13:42:37;3.30;1.00
827;DHT22;395;48.132;11.608;2023-01-26T13:45:15;3.40;1.00
827;DHT22;395;48.132;11.608;2023-01-26T13:47:44;3.40;1.00
827;DHT22;395;48.132;11.608;2023-01-26T13:50:30;3.40;1.00
827;DHT22;395;48.132;11.608;2023-01-26T13:52:57;3.40;1.00
827;DHT22;395;48.132;11.608;2023-01-26T13:55:32;3.40;1.00
827;DHT22;395;48.132;11.608;2023-01-26T13:58:16;3.50;1.00
827;DHT22;395;48.132;11.608;2023-01-26T14:00:42;3.50;1.00
827;DHT22;395;48.132;11.608;2023-01-26T14:03:22;3.40;1.00
827;DHT22;395;48.132;11.608;2023-01-26T14:06:08;3.40;1.00
827;DHT22;395;48.132;11.608;2023-01-26T14:08:35;3.40;1.00
827;DHT22;395;48.132;11.608;2023-01-26T14:11:04;3.40;1.00
827;DHT22;395;48.132;11.608;2023-01-26T14:13:39;3.40;1.00
827;DHT22;395;48.132;11.608;2023-01-26T14:16:06;3.50;1.00
827;DHT22;395;48.132;11.608;2023-01-26T14:18:32;3.50;1.00
827;DHT22;395;48.132;11.608;2023-01-26T14:21:01;3.50;1.00
827;DHT22;395;48.132;11.608;2023-01-26T14:23:38;3.50;1.00
827;DHT22;395;48.132;11.608;2023-01-26T14:26:19;3.50;1.00
827;DHT22;395;48.132;11.608;2023-01-26T14:28:45;3.50;1.00
827;DHT22;395;48.132;11.608;2023-01-26T14:31:16;3.50;1.00
827;DHT22;395;48.132;11.608;2023-01-26T14:33:43;3.60;1.00
827;DHT22;395;48.132;11.608;2023-01-26T14:36:14;3.50;1.00
827;DHT22;395;48.132;11.608;2023-01-26T14:38:47;3.60;1.00
827;DHT22;395;48.132;11.608;2023-01-26T14:41:33;3.60;1.00
827;DHT22;395;48.132;11.608;2023-01-26T14:43:59;3.60;1.00
827;DHT22;395;48.132;11.608;2023-01-26T14:47:17;3.60;1.00
827;DHT22;395;48.132;11.608;2023-01-26T14:49:34;3.60;1.00
827;DHT22;395;48.132;11.608;2023-01-26T14:52:33;3.60;1.00
827;DHT22;395;48.132;11.608;2023-01-26T14:55:43;3.60;1.00
827;DHT22;395;48.132;11.608;2023-01-26T14:58:10;3.60;1.00
827;DHT22;395;48.132;11.608;2023-01-26T15:00:37;3.60;1.00
827;DHT22;395;48.132;11.608;2023-01-26T15:03:12;3.60;1.00
827;DHT22;395;48.132;11.608;2023-01-26T15:05:39;3.60;1.00
827;DHT22;395;48.132;11.608;2023-01-26T15:08:20;3.60;1.00
827;DHT22;395;48.132;11.608;2023-01-26T15:10:57;3.60;1.00
827;DHT22;395;48.132;11.608;2023-01-26T15:13:44;3.70;1.00
827;DHT22;395;48.132;11.608;2023-01-26T15:16:15;3.50;1.00
827;DHT22;395;48.132;11.608;2023-01-26T15:18:42;3.60;1.00
827;DHT22;395;48.132;11.608;2023-01-26T15:21:12;3.60;1.00
827;DHT22;395;48.132;11.608;2023-01-26T15:23:48;3.60;1.00
827;DHT22;395;48.132;11.608;2023-01-26T15:26:28;3.60;1.00
827;DHT22;395;48.132;11.608;2023-01-26T15:28:57;3.60;1.00
827;DHT22;395;48.132;11.608;2023-01-26T15:31:51;3.60;1.00
827;DHT22;395;48.132;11.608;2023-01-26T15:34:37;3.60;1.00
827;DHT22;395;48.132;11.608;2023-01-26T15:37:27;3.60;1.00
827;DHT22;395;48.132;11.608;2023-01-26T15:39:53;3.60;1.00
827;DHT22;395;48.132;11.608;2023-01-26T15:42:24;3.60;1.00
827;DHT22;395;48.132;11.608;2023-01-26T15:44:52;3.60;1.00
827;DHT22;395;48.132;11.608;2023-01-26T15:47:17;3.60;1.00
827;DHT22;395;48.132;11.608;2023-01-26T15:49:43;3.60;1.00
827;DHT22;395;48.132;11.608;2023-01-26T15:52:12;3.60;1.00
827;DHT22;395;48.132;11.608;2023-01-26T15:54:39;3.60;1.00
827;DHT22;395;48.132;11.608;2023-01-26T15:57:05;3.60;1.00
827;DHT22;395;48.132;11.608;2023-01-26T15:59:30;3.60;1.00
827;DHT22;395;48.132;11.608;2023-01-26T16:01:56;3.60;1.00
827;DHT22;395;48.132;11.608;2023-01-26T16:04:22;3.60;1.00
827;DHT22;395;48.132;11.608;2023-01-26T16:06:50;3.70;1.00
827;DHT22;395;48.132;11.608;2023-01-26T16:09:15;3.60;1.00
827;DHT22;395;48.132;11.608;2023-01-26T16:11:46;3.60;1.00
827;DHT22;395;48.132;11.608;2023-01-26T16:14:13;3.60;1.00
827;DHT22;395;48.132;11.608;2023-01-26T16:16:39;3.60;1.00
827;DHT22;395;48.132;11.608;2023-01-26T16:19:04;3.60;1.00
827;DHT22;395;48.132;11.608;2023-01-26T16:21:34;3.70;1.00
827;DHT22;395;48.132;11.608;2023-01-26T16:24:01;3.60;1.00
827;DHT22;395;48.132;11.608;2023-01-26T16:26:27;3.60;1.00
827;DHT22;395;48.132;11.608;2023-01-26T16:28:53;3.60;1.00
827;DHT22;395;48.132;11.608;2023-01-26T16:31:21;3.60;1.00
827;DHT22;395;48.132;11.608;2023-01-26T16:33:48;3.60;1.00
827;DHT22;395;48.132;11.608;2023-01-26T16:36:20;3.60;1.00
827;DHT22;395;48.132;11.608;2023-01-26T16:38:46;3.60;1.00
827;DHT22;395;48.132;11.608;2023-01-26T16:41:20;3.60;1.00
827;DHT22;395;48.132;11.608;2023-01-26T16:43:46;3.60;1.00
827;DHT22;395;48.132;11.608;2023-01-26T16:46:11;3.60;1.00
827;DHT22;395;48.132;11.608;2023-01-26T16:48:38;3.60;1.00
827;DHT22;395;48.132;11.608;2023-01-26T16:51:34;3.60;1.00
827;DHT22;395;48.132;11.608;2023-01-26T16:54:01;3.50;1.00
827;DHT22;395;48.132;11.608;2023-01-26T16:56:27;3.50;1.00
827;DHT22;395;48.132;11.608;2023-01-26T16:58:53;3.50;1.00
827;DHT22;395;48.132;11.608;2023-01-26T17:01:26;3.50;1.00
827;DHT22;395;48.132;11.608;2023-01-26T17:03:53;3.50;1.00
827;DHT22;395;48.132;11.608;2023-01-26T17:06:21;3.50;1.00
827;DHT22;395;48.132;11.608;2023-01-26T17:08:48;3.60;1.00
827;DHT22;395;48.132;11.608;2023-01-26T17:11:27;3.50;1.00
827;DHT22;395;48.132;11.608;2023-01-26T17:13:54;3.50;1.00
827;DHT22;395;48.132;11.608;2023-01-26T17:16:23;3.60;1.00
827;DHT22;395;48.132;11.608;2023-01-26T17:18:54;3.60;1.00
827;DHT22;395;48.132;11.608;2023-01-26T17:21:20;3.70;1.00
827;DHT22;395;48.132;11.608;2023-01-26T17:23:50;3.60;1.00
827;DHT22;395;48.132;11.608;2023-01-26T17:26:17;3.60;1.00
827;DHT22;395;48.132;11.608;2023-01-26T17:28:44;3.70;1.00
827;DHT22;395;48.132;11.608;2023-01-26T17:31:12;3.60;1.00
827;DHT22;395;48.132;11.608;2023-01-26T17:33:42;3.60;1.00
827;DHT22;395;48.132;11.608;2023-01-26T17:36:07;3.60;1.00
827;DHT22;395;48.132;11.608;2023-01-26T17:38:34;3.60;1.00
827;DHT22;395;48.132;11.608;2023-01-26T17:41:00;3.60;1.00
827;DHT22;395;48.132;11.608;2023-01-26T17:43:26;3.60;1.00
827;DHT22;395;48.132;11.608;2023-01-26T17:45:59;3.60;1.00
827;DHT22;395;48.132;11.608;2023-01-26T17:48:26;3.50;1.00
827;DHT22;395;48.132;11.608;2023-01-26T17:50:52;3.50;1.00
827;DHT22;395;48.132;11.608;2023-01-26T17:53:17;3.50;1.00
827;DHT22;395;48.132;11.608;2023-01-26T17:55:43;3.50;1.00
827;DHT22;395;48.132;11.608;2023-01-26T17:58:09;3.50;1.00
827;DHT22;395;48.132;11.608;2023-01-26T18:00:38;3.50;1.00
827;DHT22;395;48.132;11.608;2023-01-26T18:03:05;3.50;1.00
827;DHT22;395;48.132;11.608;2023-01-26T18:05:31;3.50;1.00
827;DHT22;395;48.132;11.608;2023-01-26T18:07:57;3.40;1.00
827;DHT22;395;48.132;11.608;2023-01-26T18:10:22;3.40;1.00
827;DHT22;395;48.132;11.608;2023-01-26T18:12:48;3.40;1.00
827;DHT22;395;48.132;11.608;2023-01-26T18:15:14;3.40;1.00
827;DHT22;395;48.132;11.608;2023-01-26T18:17:40;3.50;1.00
827;DHT22;395;48.132;11.608;2023-01-26T18:20:06;3.50;1.00
827;DHT22;395;48.132;11.608;2023-01-26T18:22:32;3.40;1.00
827;DHT22;395;48.132;11.608;2023-01-26T18:24:58;3.40;1.00
827;DHT22;395;48.132;11.608;2023-01-26T18:27:24;3.40;1.00
827;DHT22;395;48.132;11.608;2023-01-26T18:29:49;3.40;1.00
827;DHT22;395;48.132;11.608;2023-01-26T18:32:15;3.40;1.00
827;DHT22;395;48.132;11.608;2023-01-26T18:34:41;3.50;1.00
827;DHT22;395;48.132;11.608;2023-01-26T18:37:08;3.50;1.00